sensor_id;sensor_type;location;lat;lon;timestamp;pressure;altitude;pressure_sealevel;temperature;humidity
14120;BME280;7138;49.246;9.100;2023-03-23T00:00:10;98053.97;;;15.88;68.72
14120;BME280;7138;49.246;9.100;2023-03-23T00:02:37;98051.38;;;15.88;69.01
14120;BME280;7138;49.246;9.100;2023-03-23T00:05:05;98046.75;;;15.69;68.00
14120;BME280;7138;49.246;9.100;2023-03-23T00:07:34;98050.09;;;15.73;68.37
14120;BME280;7138;49.246;9.100;2023-03-23T00:10:02;98053.31;;;15.81;68.20
14120;BME280;7138;49.246;9.100;2023-03-23T00:12:31;98053.38;;;15.79;68.51
14120;BME280;7138;49.246;9.100;2023-03-23T00:15:00;98054.06;;;15.84;68.50
14120;BME280;7138;49.246;9.100;2023-03-23T00:17:27;98043.44;;;15.91;68.05
14120;BME280;7138;49.246;9.100;2023-03-23T00:19:53;98042.69;;;15.87;68.26
14120;BME280;7138;49.246;9.100;2023-03-23T00:22:19;98051.56;;;15.81;68.29
14120;BME280;7138;49.246;9.100;2023-03-23T00:24:48;98043.03;;;15.76;68.03
14120;BME280;7138;49.246;9.100;2023-03-23T00:27:18;98041.97;;;15.83;68.06
14120;BME280;7138;49.246;9.100;2023-03-23T00:29:44;98041.09;;;15.83;68.52
14120;BME280;7138;49.246;9.100;2023-03-23T00:32:13;98039.16;;;15.90;68.17
14120;BME280;7138;49.246;9.100;2023-03-23T00:34:40;98028.63;;;15.93;67.92
14120;BME280;7138;49.246;9.100;2023-03-23T00:37:09;98018.22;;;15.91;68.19
14120;BME280;7138;49.246;9.100;2023-03-23T00:39:35;98017.16;;;15.97;68.05
14120;BME280;7138;49.246;9.100;2023-03-23T00:42:04;98018.97;;;15.95;68.06
14120;BME280;7138;49.246;9.100;2023-03-23T00:44:32;98013.88;;;15.92;67.96
14120;BME280;7138;49.246;9.100;2023-03-23T00:47:01;98004.28;;;15.92;67.94
14120;BME280;7138;49.246;9.100;2023-03-23T00:49:27;98001.78;;;15.89;68.23
14120;BME280;7138;49.246;9.100;2023-03-23T00:51:55;97998.16;;;15.93;68.06
14120;BME280;7138;49.246;9.100;2023-03-23T00:54:23;98008.47;;;15.96;68.38
14120;BME280;7138;49.246;9.100;2023-03-23T00:56:50;98006.63;;;16.00;68.10
14120;BME280;7138;49.246;9.100;2023-03-23T00:59:18;98004.75;;;16.05;67.72
14120;BME280;7138;49.246;9.100;2023-03-23T01:01:44;97999.41;;;16.08;67.47
14120;BME280;7138;49.246;9.100;2023-03-23T01:04:11;97992.38;;;16.10;67.70
14120;BME280;7138;49.246;9.100;2023-03-23T01:06:41;97993.13;;;16.13;67.52
14120;BME280;7138;49.246;9.100;2023-03-23T01:09:10;97993.91;;;16.17;67.75
14120;BME280;7138;49.246;9.100;2023-03-23T01:11:37;97987.66;;;16.21;67.79
14120;BME280;7138;49.246;9.100;2023-03-23T01:14:04;97987.59;;;16.22;67.69
14120;BME280;7138;49.246;9.100;2023-03-23T01:16:32;97991.00;;;16.24;68.21
14120;BME280;7138;49.246;9.100;2023-03-23T01:18:57;97987.59;;;16.22;67.93
14120;BME280;7138;49.246;9.100;2023-03-23T01:21:23;97991.97;;;16.22;67.70
14120;BME280;7138;49.246;9.100;2023-03-23T01:23:51;97989.41;;;16.20;67.95
14120;BME280;7138;49.246;9.100;2023-03-23T01:26:19;97985.84;;;16.23;67.56
14120;BME280;7138;49.246;9.100;2023-03-23T01:28:47;97973.59;;;16.25;67.76
14120;BME280;7138;49.246;9.100;2023-03-23T01:31:15;97977.06;;;16.25;67.62
14120;BME280;7138;49.246;9.100;2023-03-23T01:33:43;97976.13;;;16.26;67.30
14120;BME280;7138;49.246;9.100;2023-03-23T01:36:13;97971.00;;;16.25;67.51
14120;BME280;7138;49.246;9.100;2023-03-23T01:38:40;97964.06;;;16.24;67.49
14120;BME280;7138;49.246;9.100;2023-03-23T01:41:06;97965.88;;;16.22;67.25
14120;BME280;7138;49.246;9.100;2023-03-23T01:43:32;97960.69;;;16.20;67.10
14120;BME280;7138;49.246;9.100;2023-03-23T01:45:58;97957.28;;;16.20;67.25
14120;BME280;7138;49.246;9.100;2023-03-23T01:48:28;97958.09;;;16.20;67.06
14120;BME280;7138;49.246;9.100;2023-03-23T01:51:02;97957.28;;;16.20;67.12
14120;BME280;7138;49.246;9.100;2023-03-23T01:53:36;97951.31;;;16.16;67.03
14120;BME280;7138;49.246;9.100;2023-03-23T01:56:04;97950.66;;;16.10;67.64
14120;BME280;7138;49.246;9.100;2023-03-23T01:58:34;97956.63;;;16.13;67.51
14120;BME280;7138;49.246;9.100;2023-03-23T02:01:05;97960.97;;;16.13;68.01
14120;BME280;7138;49.246;9.100;2023-03-23T02:03:36;97960.09;;;16.14;67.86
14120;BME280;7138;49.246;9.100;2023-03-23T02:06:06;97956.53;;;16.16;68.08
14120;BME280;7138;49.246;9.100;2023-03-23T02:08:33;97956.53;;;16.16;67.81
14120;BME280;7138;49.246;9.100;2023-03-23T02:11:01;97951.34;;;16.15;68.19
14120;BME280;7138;49.246;9.100;2023-03-23T02:13:27;97947.03;;;16.14;67.98
14120;BME280;7138;49.246;9.100;2023-03-23T02:16:04;97950.56;;;16.13;68.18
14120;BME280;7138;49.246;9.100;2023-03-23T02:18:53;97953.25;;;16.10;68.09
14120;BME280;7138;49.246;9.100;2023-03-23T02:22:03;97954.34;;;16.04;68.44
14120;BME280;7138;49.246;9.100;2023-03-23T02:25:06;97943.19;;;15.99;69.02
14120;BME280;7138;49.246;9.100;2023-03-23T02:31:21;97921.66;;;15.94;69.07
14120;BME280;7138;49.246;9.100;2023-03-23T02:33:56;97917.41;;;15.92;69.89
14120;BME280;7138;49.246;9.100;2023-03-23T02:36:31;97910.78;;;15.81;69.98
14120;BME280;7138;49.246;9.100;2023-03-23T02:39:08;97911.63;;;15.82;69.97
14120;BME280;7138;49.246;9.100;2023-03-23T02:41:41;97905.63;;;15.80;70.57
14120;BME280;7138;49.246;9.100;2023-03-23T02:44:09;97908.19;;;15.81;70.48
14120;BME280;7138;49.246;9.100;2023-03-23T02:46:36;97902.97;;;15.81;70.86
14120;BME280;7138;49.246;9.100;2023-03-23T02:49:07;97902.38;;;15.73;71.21
14120;BME280;7138;49.246;9.100;2023-03-23T02:51:36;97902.31;;;15.75;71.23
14120;BME280;7138;49.246;9.100;2023-03-23T02:54:05;97905.00;;;15.73;71.28
14120;BME280;7138;49.246;9.100;2023-03-23T02:56:33;97908.38;;;15.75;71.35
14120;BME280;7138;49.246;9.100;2023-03-23T02:59:01;97909.13;;;15.79;71.20
14120;BME280;7138;49.246;9.100;2023-03-23T03:02:06;97897.75;;;15.81;71.34
14120;BME280;7138;49.246;9.100;2023-03-23T03:04:39;97895.34;;;15.75;71.48
14120;BME280;7138;49.246;9.100;2023-03-23T03:07:30;97904.88;;;15.76;71.33
14120;BME280;7138;49.246;9.100;2023-03-23T03:10:02;97899.88;;;15.70;71.50
14120;BME280;7138;49.246;9.100;2023-03-23T03:12:38;97898.16;;;15.69;71.95
14120;BME280;7138;49.246;9.100;2023-03-23T03:15:16;97900.78;;;15.69;71.81
14120;BME280;7138;49.246;9.100;2023-03-23T03:17:52;97898.13;;;15.71;71.74
14120;BME280;7138;49.246;9.100;2023-03-23T03:20:22;97886.00;;;15.70;71.74
14120;BME280;7138;49.246;9.100;2023-03-23T03:22:51;97887.53;;;15.75;71.58
14120;BME280;7138;49.246;9.100;2023-03-23T03:25:19;97903.91;;;15.79;71.48
14120;BME280;7138;49.246;9.100;2023-03-23T03:27:48;97891.69;;;15.81;71.27
14120;BME280;7138;49.246;9.100;2023-03-23T03:30:22;97877.41;;;15.66;71.60
14120;BME280;7138;49.246;9.100;2023-03-23T03:32:53;97885.97;;;15.71;71.54
14120;BME280;7138;49.246;9.100;2023-03-23T03:35:22;97894.03;;;15.64;71.90
14120;BME280;7138;49.246;9.100;2023-03-23T03:37:49;97876.25;;;15.50;72.15
14120;BME280;7138;49.246;9.100;2023-03-23T03:40:19;97890.72;;;15.59;72.17
14120;BME280;7138;49.246;9.100;2023-03-23T03:42:46;97877.69;;;15.59;72.05
14120;BME280;7138;49.246;9.100;2023-03-23T03:45:14;97877.59;;;15.62;72.06
14120;BME280;7138;49.246;9.100;2023-03-23T03:47:40;97882.72;;;15.63;72.13
14120;BME280;7138;49.246;9.100;2023-03-23T03:50:07;97885.31;;;15.65;72.39
14120;BME280;7138;49.246;9.100;2023-03-23T03:52:36;97878.28;;;15.67;72.04
14120;BME280;7138;49.246;9.100;2023-03-23T03:55:02;97882.84;;;15.60;71.71
14120;BME280;7138;49.246;9.100;2023-03-23T03:57:28;97886.19;;;15.64;72.24
14120;BME280;7138;49.246;9.100;2023-03-23T03:59:53;97894.03;;;15.64;72.41
14120;BME280;7138;49.246;9.100;2023-03-23T04:02:20;97890.41;;;15.68;72.43
14120;BME280;7138;49.246;9.100;2023-03-23T04:04:46;97890.34;;;15.69;72.22
14120;BME280;7138;49.246;9.100;2023-03-23T04:07:13;97895.53;;;15.71;72.41
14120;BME280;7138;49.246;9.100;2023-03-23T04:09:40;97897.19;;;15.72;71.89
14120;BME280;7138;49.246;9.100;2023-03-23T04:12:06;97897.16;;;15.73;72.20
14120;BME280;7138;49.246;9.100;2023-03-23T04:14:33;97889.25;;;15.76;72.10
14120;BME280;7138;49.246;9.100;2023-03-23T04:16:58;97897.97;;;15.75;72.63
14120;BME280;7138;49.246;9.100;2023-03-23T04:19:25;97891.78;;;15.78;71.93
14120;BME280;7138;49.246;9.100;2023-03-23T04:21:54;97884.06;;;15.75;72.01
14120;BME280;7138;49.246;9.100;2023-03-23T04:24:21;97895.41;;;15.74;71.96
14120;BME280;7138;49.246;9.100;2023-03-23T04:26:51;97885.00;;;15.74;71.83
14120;BME280;7138;49.246;9.100;2023-03-23T04:29:20;97888.50;;;15.73;71.79
14120;BME280;7138;49.246;9.100;2023-03-23T04:31:46;97881.47;;;15.75;71.96
14120;BME280;7138;49.246;9.100;2023-03-23T04:34:11;97883.19;;;15.76;71.88
14120;BME280;7138;49.246;9.100;2023-03-23T04:36:39;97900.63;;;15.74;71.69
14120;BME280;7138;49.246;9.100;2023-03-23T04:39:04;97895.41;;;15.74;71.29
14120;BME280;7138;49.246;9.100;2023-03-23T04:41:35;97902.53;;;15.69;71.48
14120;BME280;7138;49.246;9.100;2023-03-23T04:44:04;97906.81;;;15.71;72.00
14120;BME280;7138;49.246;9.100;2023-03-23T04:46:31;97909.50;;;15.68;72.03
14120;BME280;7138;49.246;9.100;2023-03-23T04:48:57;97901.84;;;15.64;72.13
14120;BME280;7138;49.246;9.100;2023-03-23T04:51:28;97915.16;;;15.55;72.07
14120;BME280;7138;49.246;9.100;2023-03-23T04:53:54;97912.56;;;15.55;72.17
14120;BME280;7138;49.246;9.100;2023-03-23T04:56:20;97904.84;;;15.52;72.02
14120;BME280;7138;49.246;9.100;2023-03-23T04:58:47;97911.47;;;15.62;71.80
14120;BME280;7138;49.246;9.100;2023-03-23T05:01:14;97903.47;;;15.66;71.68
14120;BME280;7138;49.246;9.100;2023-03-23T05:03:40;97906.75;;;15.73;71.82
14120;BME280;7138;49.246;9.100;2023-03-23T05:06:06;97893.50;;;15.79;71.89
14120;BME280;7138;49.246;9.100;2023-03-23T05:08:33;97893.47;;;15.80;71.62
14120;BME280;7138;49.246;9.100;2023-03-23T05:11:00;97893.50;;;15.79;71.37
14120;BME280;7138;49.246;9.100;2023-03-23T05:13:28;97895.97;;;15.83;71.38
14120;BME280;7138;49.246;9.100;2023-03-23T05:15:54;97899.38;;;15.84;71.67
14120;BME280;7138;49.246;9.100;2023-03-23T05:18:22;97901.09;;;15.85;71.66
14120;BME280;7138;49.246;9.100;2023-03-23T05:20:48;97905.44;;;15.86;71.65
14120;BME280;7138;49.246;9.100;2023-03-23T05:23:15;97908.81;;;15.88;72.15
14120;BME280;7138;49.246;9.100;2023-03-23T05:25:41;97912.22;;;15.90;71.86
14120;BME280;7138;49.246;9.100;2023-03-23T05:28:07;97916.63;;;15.88;71.86
14120;BME280;7138;49.246;9.100;2023-03-23T05:30:34;97911.50;;;15.87;71.83
14120;BME280;7138;49.246;9.100;2023-03-23T05:33:01;97922.38;;;15.73;72.43
14120;BME280;7138;49.246;9.100;2023-03-23T05:35:28;97918.97;;;15.71;71.64
14120;BME280;7138;49.246;9.100;2023-03-23T05:37:54;97933.00;;;15.67;72.27
14120;BME280;7138;49.246;9.100;2023-03-23T05:40:21;97934.00;;;15.63;72.77
14120;BME280;7138;49.246;9.100;2023-03-23T05:42:49;97942.19;;;15.52;72.42
14120;BME280;7138;49.246;9.100;2023-03-23T05:45:14;97949.13;;;15.53;72.71
14120;BME280;7138;49.246;9.100;2023-03-23T05:47:42;97950.88;;;15.53;72.54
14120;BME280;7138;49.246;9.100;2023-03-23T05:50:09;97948.25;;;15.53;73.16
14120;BME280;7138;49.246;9.100;2023-03-23T05:52:38;97951.53;;;15.59;73.49
14120;BME280;7138;49.246;9.100;2023-03-23T05:55:07;97956.78;;;15.58;73.35
14120;BME280;7138;49.246;9.100;2023-03-23T05:57:34;97966.31;;;15.59;74.42
14120;BME280;7138;49.246;9.100;2023-03-23T06:00:00;97978.19;;;15.38;74.96
14120;BME280;7138;49.246;9.100;2023-03-23T06:02:31;97979.69;;;15.19;76.49
14120;BME280;7138;49.246;9.100;2023-03-23T06:04:56;97973.47;;;14.95;78.02
14120;BME280;7138;49.246;9.100;2023-03-23T06:07:26;97970.78;;;14.98;79.25
14120;BME280;7138;49.246;9.100;2023-03-23T06:09:54;97967.53;;;14.90;79.75
14120;BME280;7138;49.246;9.100;2023-03-23T06:12:19;97964.03;;;14.91;79.37
14120;BME280;7138;49.246;9.100;2023-03-23T06:14:45;97955.38;;;14.91;79.33
14120;BME280;7138;49.246;9.100;2023-03-23T06:17:12;97967.88;;;14.80;79.39
14120;BME280;7138;49.246;9.100;2023-03-23T06:19:38;97968.50;;;14.88;79.57
14120;BME280;7138;49.246;9.100;2023-03-23T06:22:04;97969.94;;;14.98;79.19
14120;BME280;7138;49.246;9.100;2023-03-23T06:24:30;97960.31;;;15.00;78.73
14120;BME280;7138;49.246;9.100;2023-03-23T06:26:59;97960.28;;;15.01;78.92
14120;BME280;7138;49.246;9.100;2023-03-23T06:29:25;97961.09;;;15.02;78.58
14120;BME280;7138;49.246;9.100;2023-03-23T06:31:55;97960.81;;;15.11;78.74
14120;BME280;7138;49.246;9.100;2023-03-23T06:34:22;97966.03;;;15.11;78.71
14120;BME280;7138;49.246;9.100;2023-03-23T06:36:48;97969.56;;;15.10;78.37
14120;BME280;7138;49.246;9.100;2023-03-23T06:39:14;97970.53;;;15.06;78.42
14120;BME280;7138;49.246;9.100;2023-03-23T06:41:41;97971.25;;;15.11;78.46
14120;BME280;7138;49.246;9.100;2023-03-23T06:44:08;97971.34;;;15.08;78.26
14120;BME280;7138;49.246;9.100;2023-03-23T06:46:39;97975.63;;;15.10;78.56
14120;BME280;7138;49.246;9.100;2023-03-23T06:49:05;97970.69;;;15.01;77.86
14120;BME280;7138;49.246;9.100;2023-03-23T06:51:31;97981.63;;;15.12;79.31
14120;BME280;7138;49.246;9.100;2023-03-23T06:53:57;97982.84;;;15.01;78.97
14120;BME280;7138;49.246;9.100;2023-03-23T06:56:23;97983.75;;;15.00;80.37
14120;BME280;7138;49.246;9.100;2023-03-23T06:58:49;97989.63;;;15.06;79.79
14120;BME280;7138;49.246;9.100;2023-03-23T07:01:16;97988.41;;;15.18;79.56
14120;BME280;7138;49.246;9.100;2023-03-23T07:03:43;97991.00;;;15.18;79.02
14120;BME280;7138;49.246;9.100;2023-03-23T07:06:10;97992.84;;;15.14;79.67
14120;BME280;7138;49.246;9.100;2023-03-23T07:08:36;97999.75;;;15.15;79.39
14120;BME280;7138;49.246;9.100;2023-03-23T07:11:03;98007.41;;;15.20;79.59
14120;BME280;7138;49.246;9.100;2023-03-23T07:13:29;98009.84;;;15.26;79.50
14120;BME280;7138;49.246;9.100;2023-03-23T07:15:55;98019.97;;;15.35;79.25
14120;BME280;7138;49.246;9.100;2023-03-23T07:18:22;98020.94;;;15.32;79.17
14120;BME280;7138;49.246;9.100;2023-03-23T07:20:49;98028.84;;;15.29;79.31
14120;BME280;7138;49.246;9.100;2023-03-23T07:23:16;98047.16;;;15.26;79.02
14120;BME280;7138;49.246;9.100;2023-03-23T07:25:43;98044.28;;;15.36;79.27
14120;BME280;7138;49.246;9.100;2023-03-23T07:28:09;98043.34;;;15.38;79.39
14120;BME280;7138;49.246;9.100;2023-03-23T07:30:35;98056.34;;;15.38;79.45
14120;BME280;7138;49.246;9.100;2023-03-23T07:33:05;98053.38;;;15.22;78.99
14120;BME280;7138;49.246;9.100;2023-03-23T07:35:33;98046.81;;;15.09;79.99
14120;BME280;7138;49.246;9.100;2023-03-23T07:37:59;98065.56;;;15.20;80.20
14120;BME280;7138;49.246;9.100;2023-03-23T07:40:25;98068.00;;;15.26;81.15
14120;BME280;7138;49.246;9.100;2023-03-23T07:42:54;98044.66;;;15.23;82.47
14120;BME280;7138;49.246;9.100;2023-03-23T07:45:21;98057.41;;;15.32;82.84
14120;BME280;7138;49.246;9.100;2023-03-23T07:47:47;98042.78;;;15.28;83.07
14120;BME280;7138;49.246;9.100;2023-03-23T07:50:13;98054.44;;;15.45;83.22
14120;BME280;7138;49.246;9.100;2023-03-23T07:52:41;98062.50;;;15.37;82.41
14120;BME280;7138;49.246;9.100;2023-03-23T07:55:09;98071.91;;;15.41;83.44
14120;BME280;7138;49.246;9.100;2023-03-23T07:57:43;98076.47;;;15.35;83.13
14120;BME280;7138;49.246;9.100;2023-03-23T08:00:11;98084.63;;;15.22;83.30
14120;BME280;7138;49.246;9.100;2023-03-23T08:02:39;98092.03;;;15.07;84.13
14120;BME280;7138;49.246;9.100;2023-03-23T08:05:06;98084.47;;;14.98;85.32
14120;BME280;7138;49.246;9.100;2023-03-23T08:07:34;98102.97;;;14.89;85.49
14120;BME280;7138;49.246;9.100;2023-03-23T08:10:01;98099.53;;;14.87;85.66
14120;BME280;7138;49.246;9.100;2023-03-23T08:12:27;98104.06;;;14.80;86.46
14120;BME280;7138;49.246;9.100;2023-03-23T08:14:53;98100.63;;;14.78;86.85
14120;BME280;7138;49.246;9.100;2023-03-23T08:17:20;98114.41;;;14.83;88.07
14120;BME280;7138;49.246;9.100;2023-03-23T08:19:46;98101.63;;;14.74;88.44
14120;BME280;7138;49.246;9.100;2023-03-23T08:22:12;98102.53;;;14.73;88.63
14120;BME280;7138;49.246;9.100;2023-03-23T08:24:38;98112.03;;;14.74;89.24
14120;BME280;7138;49.246;9.100;2023-03-23T08:27:05;98103.31;;;14.75;90.59
14120;BME280;7138;49.246;9.100;2023-03-23T08:29:32;98108.59;;;14.73;90.86
14120;BME280;7138;49.246;9.100;2023-03-23T08:31:58;98114.72;;;14.71;91.46
14120;BME280;7138;49.246;9.100;2023-03-23T08:34:25;98111.88;;;14.80;91.53
14120;BME280;7138;49.246;9.100;2023-03-23T08:36:51;98109.81;;;14.91;91.32
14120;BME280;7138;49.246;9.100;2023-03-23T08:39:17;98116.41;;;15.04;91.86
14120;BME280;7138;49.246;9.100;2023-03-23T08:41:44;98115.91;;;15.22;91.99
14120;BME280;7138;49.246;9.100;2023-03-23T08:44:11;98117.66;;;15.20;90.48
14120;BME280;7138;49.246;9.100;2023-03-23T08:46:38;98115.53;;;15.35;89.61
14120;BME280;7138;49.246;9.100;2023-03-23T08:49:04;98114.03;;;15.26;89.61
14120;BME280;7138;49.246;9.100;2023-03-23T08:51:31;98114.69;;;15.34;88.97
14120;BME280;7138;49.246;9.100;2023-03-23T08:53:57;98112.59;;;15.45;89.78
14120;BME280;7138;49.246;9.100;2023-03-23T08:56:24;98116.91;;;15.48;89.09
14120;BME280;7138;49.246;9.100;2023-03-23T08:58:50;98113.22;;;15.55;88.41
14120;BME280;7138;49.246;9.100;2023-03-23T09:01:17;98111.47;;;15.55;88.17
14120;BME280;7138;49.246;9.100;2023-03-23T09:03:43;98103.94;;;15.45;87.91
14120;BME280;7138;49.246;9.100;2023-03-23T09:06:09;98114.03;;;15.57;87.55
14120;BME280;7138;49.246;9.100;2023-03-23T09:08:38;98121.56;;;15.66;87.15
14120;BME280;7138;49.246;9.100;2023-03-23T09:11:09;98123.25;;;15.68;87.02
14120;BME280;7138;49.246;9.100;2023-03-23T09:13:35;98121.56;;;15.66;86.87
14120;BME280;7138;49.246;9.100;2023-03-23T09:16:02;98113.53;;;15.73;86.48
14120;BME280;7138;49.246;9.100;2023-03-23T09:18:31;98118.34;;;15.85;86.27
14120;BME280;7138;49.246;9.100;2023-03-23T09:21:02;98112.38;;;15.82;86.51
14120;BME280;7138;49.246;9.100;2023-03-23T09:23:29;98116.84;;;15.78;86.24
14120;BME280;7138;49.246;9.100;2023-03-23T09:25:55;98115.69;;;15.87;86.65
14120;BME280;7138;49.246;9.100;2023-03-23T09:28:21;98120.88;;;15.89;86.46
14120;BME280;7138;49.246;9.100;2023-03-23T09:30:48;98114.66;;;15.93;85.81
14120;BME280;7138;49.246;9.100;2023-03-23T09:33:15;98125.31;;;15.85;85.34
14120;BME280;7138;49.246;9.100;2023-03-23T09:35:42;98136.72;;;15.81;85.57
14120;BME280;7138;49.246;9.100;2023-03-23T09:38:10;98130.25;;;15.94;85.67
14120;BME280;7138;49.246;9.100;2023-03-23T09:40:45;98145.38;;;15.83;85.17
14120;BME280;7138;49.246;9.100;2023-03-23T09:43:43;98132.25;;;15.86;85.54
14120;BME280;7138;49.246;9.100;2023-03-23T09:46:28;98152.47;;;15.78;85.17
14120;BME280;7138;49.246;9.100;2023-03-23T09:48:59;98160.19;;;15.81;85.74
14120;BME280;7138;49.246;9.100;2023-03-23T09:51:39;98173.59;;;15.69;86.82
14120;BME280;7138;49.246;9.100;2023-03-23T09:54:16;98175.69;;;15.58;87.32
14120;BME280;7138;49.246;9.100;2023-03-23T09:56:45;98171.31;;;15.58;88.63
14120;BME280;7138;49.246;9.100;2023-03-23T09:59:18;98184.69;;;15.45;89.87
14120;BME280;7138;49.246;9.100;2023-03-23T10:01:48;98172.94;;;15.31;90.74
14120;BME280;7138;49.246;9.100;2023-03-23T10:04:30;98190.59;;;15.20;92.15
14120;BME280;7138;49.246;9.100;2023-03-23T10:07:09;98185.25;;;14.93;94.11
14120;BME280;7138;49.246;9.100;2023-03-23T10:09:36;98191.38;;;14.92;95.70
14120;BME280;7138;49.246;9.100;2023-03-23T10:12:15;98192.34;;;14.89;96.04
14120;BME280;7138;49.246;9.100;2023-03-23T10:15:03;98193.38;;;14.82;97.18
14120;BME280;7138;49.246;9.100;2023-03-23T10:17:38;98199.13;;;14.61;98.90
14120;BME280;7138;49.246;9.100;2023-03-23T10:20:27;98196.38;;;14.65;99.55
14120;BME280;7138;49.246;9.100;2023-03-23T10:23:10;98194.06;;;14.55;100.00
14120;BME280;7138;49.246;9.100;2023-03-23T10:28:35;98193.78;;;14.65;100.00
14120;BME280;7138;49.246;9.100;2023-03-23T10:31:03;98188.72;;;14.59;100.00
14120;BME280;7138;49.246;9.100;2023-03-23T10:33:37;98186.91;;;14.64;100.00
14120;BME280;7138;49.246;9.100;2023-03-23T10:36:09;98188.88;;;14.55;100.00
14120;BME280;7138;49.246;9.100;2023-03-23T10:38:44;98193.03;;;14.62;100.00
14120;BME280;7138;49.246;9.100;2023-03-23T10:41:13;98190.19;;;14.71;100.00
14120;BME280;7138;49.246;9.100;2023-03-23T10:43:41;98182.63;;;14.62;100.00
14120;BME280;7138;49.246;9.100;2023-03-23T10:46:24;98188.78;;;14.58;100.00
14120;BME280;7138;49.246;9.100;2023-03-23T10:48:53;98173.19;;;14.56;100.00
14120;BME280;7138;49.246;9.100;2023-03-23T10:51:27;98175.66;;;14.62;100.00
14120;BME280;7138;49.246;9.100;2023-03-23T10:54:01;98178.00;;;14.73;100.00
14120;BME280;7138;49.246;9.100;2023-03-23T10:56:37;98174.44;;;14.77;100.00
14120;BME280;7138;49.246;9.100;2023-03-23T10:59:14;98186.69;;;14.72;100.00
14120;BME280;7138;49.246;9.100;2023-03-23T11:01:44;98177.19;;;14.71;100.00
14120;BME280;7138;49.246;9.100;2023-03-23T11:04:13;98172.72;;;14.76;100.00
14120;BME280;7138;49.246;9.100;2023-03-23T11:06:45;98170.03;;;14.79;100.00
14120;BME280;7138;49.246;9.100;2023-03-23T11:09:17;98167.25;;;14.85;100.00
14120;BME280;7138;49.246;9.100;2023-03-23T11:11:49;98154.72;;;14.99;100.00
14120;BME280;7138;49.246;9.100;2023-03-23T11:14:18;98151.06;;;15.06;100.00
14120;BME280;7138;49.246;9.100;2023-03-23T11:16:50;98153.63;;;15.08;100.00
14120;BME280;7138;49.246;9.100;2023-03-23T11:19:24;98164.13;;;15.05;100.00
14120;BME280;7138;49.246;9.100;2023-03-23T11:21:52;98168.41;;;15.07;100.00
14120;BME280;7138;49.246;9.100;2023-03-23T11:24:23;98156.19;;;15.09;100.00
14120;BME280;7138;49.246;9.100;2023-03-23T11:26:51;98157.41;;;14.96;100.00
14120;BME280;7138;49.246;9.100;2023-03-23T11:29:21;98169.16;;;15.11;100.00
14120;BME280;7138;49.246;9.100;2023-03-23T11:31:52;98170.00;;;15.13;100.00
14120;BME280;7138;49.246;9.100;2023-03-23T11:34:23;98168.44;;;15.06;100.00
14120;BME280;7138;49.246;9.100;2023-03-23T11:36:53;98172.16;;;14.97;100.00
14120;BME280;7138;49.246;9.100;2023-03-23T11:39:25;98174.06;;;14.91;100.00
14120;BME280;7138;49.246;9.100;2023-03-23T11:41:52;98179.16;;;14.95;100.00
14120;BME280;7138;49.246;9.100;2023-03-23T11:44:20;98183.75;;;14.86;100.00
14120;BME280;7138;49.246;9.100;2023-03-23T11:46:58;98193.22;;;14.88;100.00
14120;BME280;7138;49.246;9.100;2023-03-23T11:49:41;98190.19;;;14.71;99.86
14120;BME280;7138;49.246;9.100;2023-03-23T11:52:23;98194.38;;;14.76;100.00
14120;BME280;7138;49.246;9.100;2023-03-23T11:55:00;98187.94;;;14.91;100.00
14120;BME280;7138;49.246;9.100;2023-03-23T11:57:29;98188.88;;;14.89;99.42
14120;BME280;7138;49.246;9.100;2023-03-23T11:59:56;98197.31;;;14.97;98.39
14120;BME280;7138;49.246;9.100;2023-03-23T12:05:49;98187.94;;;14.90;97.24
14120;BME280;7138;49.246;9.100;2023-03-23T12:11:22;98181.00;;;14.90;97.68
14120;BME280;7138;49.246;9.100;2023-03-23T12:14:03;98182.16;;;14.80;96.83
14120;BME280;7138;49.246;9.100;2023-03-23T12:16:50;98181.84;;;14.91;96.18
14120;BME280;7138;49.246;9.100;2023-03-23T12:19:30;98191.22;;;14.98;96.52
14120;BME280;7138;49.246;9.100;2023-03-23T12:22:09;98188.16;;;15.14;95.33
14120;BME280;7138;49.246;9.100;2023-03-23T12:24:51;98180.94;;;15.25;95.01
14120;BME280;7138;49.246;9.100;2023-03-23T12:27:33;98176.00;;;15.46;94.85
14120;BME280;7138;49.246;9.100;2023-03-23T12:30:21;98181.28;;;15.43;93.58
14120;BME280;7138;49.246;9.100;2023-03-23T12:33:05;98182.88;;;15.50;94.18
14120;BME280;7138;49.246;9.100;2023-03-23T12:35:47;98174.28;;;15.45;93.90
14120;BME280;7138;49.246;9.100;2023-03-23T12:38:33;98166.97;;;15.59;94.62
14120;BME280;7138;49.246;9.100;2023-03-23T12:41:15;98173.13;;;15.56;93.98
14120;BME280;7138;49.246;9.100;2023-03-23T12:43:51;98166.88;;;15.62;93.02
14120;BME280;7138;49.246;9.100;2023-03-23T12:46:41;98170.28;;;15.64;92.53
14120;BME280;7138;49.246;9.100;2023-03-23T12:49:16;98172.69;;;15.71;93.38
14120;BME280;7138;49.246;9.100;2023-03-23T12:51:52;98179.84;;;15.63;92.83
14120;BME280;7138;49.246;9.100;2023-03-23T12:54:28;98179.09;;;15.60;91.84
14120;BME280;7138;49.246;9.100;2023-03-23T12:57:03;98170.28;;;15.64;92.03
14120;BME280;7138;49.246;9.100;2023-03-23T12:59:40;98170.88;;;15.73;91.94
14120;BME280;7138;49.246;9.100;2023-03-23T13:02:22;98157.97;;;15.69;91.50
14120;BME280;7138;49.246;9.100;2023-03-23T13:04:56;98155.91;;;15.80;92.34
14120;BME280;7138;49.246;9.100;2023-03-23T13:07:30;98142.72;;;15.84;91.79
14120;BME280;7138;49.246;9.100;2023-03-23T13:10:07;98141.03;;;15.83;91.13
14120;BME280;7138;49.246;9.100;2023-03-23T13:12:35;98136.91;;;15.75;91.04
14120;BME280;7138;49.246;9.100;2023-03-23T13:15:17;98142.97;;;15.77;91.25
14120;BME280;7138;49.246;9.100;2023-03-23T13:17:58;98127.13;;;15.83;91.48
14120;BME280;7138;49.246;9.100;2023-03-23T13:20:51;98130.25;;;15.94;90.88
14120;BME280;7138;49.246;9.100;2023-03-23T13:23:23;98128.69;;;15.89;90.58
14120;BME280;7138;49.246;9.100;2023-03-23T13:25:59;98123.97;;;16.00;90.10
14120;BME280;7138;49.246;9.100;2023-03-23T13:28:28;98122.03;;;16.06;89.71
14120;BME280;7138;49.246;9.100;2023-03-23T13:30:59;98128.97;;;16.07;88.62
14120;BME280;7138;49.246;9.100;2023-03-23T13:33:31;98117.88;;;16.01;88.82
14120;BME280;7138;49.246;9.100;2023-03-23T13:36:02;98126.31;;;16.09;89.24
14120;BME280;7138;49.246;9.100;2023-03-23T13:38:32;98102.81;;;16.09;88.93